^^
Your Local Weather - Clay, NY Station Historical Data
Daily Summary for January 15, 2017 Units:  Metric    English   Both
« Previous Day
Next Day »
Daily Weekly Monthly Yearly Custom
  High: Low: Average:
Temperature: 0.7 °C -7.9 °C -2.3 °C
Dew Point: -5.4 °C -9.6 °C -6.9 °C
Humidity: 90% 49% 71%
Wind Speed: 8km/h 0km/h 2.6km/h
Wind Gust: 22.5km/h - -
Wind- - West
Pressure: 1029.3 hPa 1026 hPa -
Precipitation: 0 mm    
Historical Graphs
 
 
Tabular Data for January 15, 2017
Time Temperature Dew Point Pressure Wind Wind Speed Wind Gust Humidity Rainfall Rate (Hourly) solar
00:00 -7.7 °C -9.3 °C 1026.3 hPa Calm     88% 0 mm 0 W/m2
00:06 -7.7 °C -9.3 °C 1026.3 hPa Calm     88% 0 mm 0 W/m2
00:12 -7.8 °C -9.4 °C 1026.3 hPa Calm     88% 0 mm 0 W/m2
00:18 -7.9 °C -9.6 °C 1026.3 hPa Calm     88% 0 mm 0 W/m2
00:24 -7.8 °C -9.5 °C 1026.3 hPa Calm     88% 0 mm 0 W/m2
00:30 -7.6 °C -9.1 °C 1026.3 hPa Calm     89% 0 mm 0 W/m2
00:36 -7.3 °C -8.8 °C 1026.3 hPa Calm     89% 0 mm 0 W/m2
00:42 -6.9 °C -8.3 °C 1026 hPa Calm     90% 0 mm 0 W/m2
00:48 -6.5 °C -7.9 °C 1026 hPa Calm     90% 0 mm 0 W/m2
00:54 -6.1 °C -7.4 °C 1026 hPa Calm     90% 0 mm 0 W/m2
01:00 -5.6 °C -6.9 °C 1026 hPa Calm     90% 0 mm 0 W/m2
01:06 -5.2 °C -6.9 °C 1026 hPa Calm   1.6 km/h 88% 0 mm 0 W/m2
01:12 -5 °C -7 °C 1026 hPa SW 1.6 km/h 1.6 km/h 86% 0 mm 0 W/m2
01:18 -4.9 °C -7.2 °C 1026 hPa SW 1.6 km/h 1.6 km/h 84% 0 mm 0 W/m2
01:24 -4.8 °C -7.3 °C 1026 hPa Calm   1.6 km/h 83% 0 mm 0 W/m2
01:30 -4.9 °C -7.3 °C 1026 hPa Calm     83% 0 mm 0 W/m2
01:36 -4.9 °C -7.4 °C 1026.3 hPa Calm     83% 0 mm 0 W/m2
01:42 -4.9 °C -7.4 °C 1026.3 hPa Calm     83% 0 mm 0 W/m2
01:48 -4.9 °C -7.4 °C 1026.3 hPa Calm     83% 0 mm 0 W/m2
01:54 -4.8 °C -7.3 °C 1026.3 hPa Calm   3.2 km/h 83% 0 mm 0 W/m2
02:00 -4.7 °C -6.9 °C 1026.3 hPa Calm     84% 0 mm 0 W/m2
02:06 -4.4 °C -6.9 °C 1026.6 hPa Calm   3.2 km/h 83% 0 mm 0 W/m2
02:12 -4.4 °C -7 °C 1026.6 hPa SW 1.6 km/h 4.8 km/h 82% 0 mm 0 W/m2
02:18 -4.3 °C -6.9 °C 1026.6 hPa WSW 1.6 km/h 4.8 km/h 82% 0 mm 0 W/m2
02:24 -4.2 °C -7 °C 1026.6 hPa WSW 1.6 km/h 3.2 km/h 81% 0 mm 0 W/m2
02:30 -4.2 °C -6.9 °C 1026.6 hPa WSW 1.6 km/h 3.2 km/h 81% 0 mm 0 W/m2
02:36 -4.2 °C -6.9 °C 1026.6 hPa Calm   3.2 km/h 81% 0 mm 0 W/m2
02:42 -4.1 °C -7 °C 1026.6 hPa WSW 1.6 km/h 1.6 km/h 80% 0 mm 0 W/m2
02:48 -4.1 °C -7 °C 1026.6 hPa WSW 1.6 km/h 1.6 km/h 80% 0 mm 0 W/m2
02:54 -4 °C -6.9 °C 1026.6 hPa WSW 1.6 km/h 4.8 km/h 80% 0 mm 0 W/m2
03:00 -3.9 °C -6.9 °C 1026.6 hPa WSW 3.2 km/h 3.2 km/h 80% 0 mm 0 W/m2
03:06 -3.9 °C -6.9 °C 1026.6 hPa WSW 1.6 km/h 3.2 km/h 80% 0 mm 0 W/m2
03:12 -3.9 °C -6.9 °C 1026.6 hPa West 1.6 km/h 3.2 km/h 80% 0 mm 0 W/m2
03:18 -3.9 °C -6.9 °C 1026.6 hPa WSW 3.2 km/h 3.2 km/h 80% 0 mm 0 W/m2
03:24 -3.9 °C -6.9 °C 1026.6 hPa West 3.2 km/h 3.2 km/h 80% 0 mm 0 W/m2
03:30 -4 °C -6.9 °C 1026.6 hPa West 1.6 km/h 1.6 km/h 80% 0 mm 0 W/m2
03:36 -4.1 °C -6.8 °C 1026.6 hPa WSW 1.6 km/h 3.2 km/h 81% 0 mm 0 W/m2
03:42 -4.1 °C -7.1 °C 1026.6 hPa WSW 1.6 km/h 4.8 km/h 80% 0 mm 0 W/m2
03:48 -4.1 °C -6.9 °C 1026.6 hPa WSW 1.6 km/h 4.8 km/h 81% 0 mm 0 W/m2
03:54 -4.1 °C -6.9 °C 1026.3 hPa SW 3.2 km/h 3.2 km/h 81% 0 mm 0 W/m2
04:00 -4.1 °C -6.8 °C 1026.3 hPa SW 3.2 km/h 3.2 km/h 81% 0 mm 0 W/m2
04:06 -4.1 °C -6.7 °C 1026.3 hPa WSW 3.2 km/h 3.2 km/h 82% 0 mm 0 W/m2
04:12 -4 °C -6.6 °C 1026.6 hPa WSW 3.2 km/h 3.2 km/h 82% 0 mm 0 W/m2
04:18 -3.9 °C -6.6 °C 1026.6 hPa West 3.2 km/h 3.2 km/h 82% 0 mm 0 W/m2
04:24 -3.9 °C -6.7 °C 1026.6 hPa SW 3.2 km/h 3.2 km/h 81% 0 mm 0 W/m2
04:30 -3.9 °C -6.7 °C 1026.6 hPa West 3.2 km/h 3.2 km/h 81% 0 mm 0 W/m2
04:36 -3.8 °C -6.6 °C 1026.6 hPa WSW 3.2 km/h 3.2 km/h 81% 0 mm 0 W/m2
04:42 -3.8 °C -6.6 °C 1026.6 hPa SW 3.2 km/h 4.8 km/h 81% 0 mm 0 W/m2
04:48 -3.7 °C -6.5 °C 1026.6 hPa WSW 4.8 km/h 6.4 km/h 81% 0 mm 0 W/m2
04:54 -3.7 °C -6.5 °C 1026.6 hPa WSW 4.8 km/h 6.4 km/h 81% 0 mm 0 W/m2
05:00 -3.7 °C -6.5 °C 1026.6 hPa WSW 3.2 km/h 3.2 km/h 81% 0 mm 0 W/m2
05:06 -3.7 °C -6.4 °C 1026.6 hPa West 3.2 km/h 8 km/h 81% 0 mm 0 W/m2
05:12 -3.7 °C -6.4 °C 1026.6 hPa SW 3.2 km/h 3.2 km/h 81% 0 mm 0 W/m2
05:18 -3.7 °C -6.4 °C 1026.6 hPa WSW 3.2 km/h 3.2 km/h 81% 0 mm 0 W/m2
05:24 -3.7 °C -6.4 °C 1026.6 hPa SW 3.2 km/h 3.2 km/h 81% 0 mm 0 W/m2
05:30 -3.6 °C -6.4 °C 1026.6 hPa WSW 3.2 km/h 3.2 km/h 81% 0 mm 0 W/m2
05:36 -3.6 °C -6.4 °C 1026.6 hPa WSW 3.2 km/h 4.8 km/h 81% 0 mm 0 W/m2
05:42 -3.6 °C -6.4 °C 1026.6 hPa WSW 3.2 km/h 3.2 km/h 81% 0 mm 0 W/m2
05:48 -3.6 °C -6.3 °C 1026.6 hPa West 3.2 km/h 3.2 km/h 81% 0 mm 0 W/m2
05:54 -3.6 °C -6.3 °C 1026.6 hPa West 3.2 km/h 8 km/h 81% 0 mm 0 W/m2
06:00 -3.4 °C -6.2 °C 1027 hPa West 4.8 km/h 4.8 km/h 81% 0 mm 0 W/m2
06:06 -3.4 °C -6.4 °C 1027 hPa West 4.8 km/h 4.8 km/h 80% 0 mm 0 W/m2
06:12 -3.4 °C -6.4 °C 1027 hPa WSW 4.8 km/h 4.8 km/h 80% 0 mm 0 W/m2
06:18 -3.4 °C -6.3 °C 1027 hPa WSW 3.2 km/h 4.8 km/h 80% 0 mm 0 W/m2
06:24 -3.4 °C -6.3 °C 1027 hPa West 3.2 km/h 3.2 km/h 80% 0 mm 0 W/m2
06:30 -3.4 °C -6.3 °C 1027 hPa WSW 1.6 km/h 1.6 km/h 80% 0 mm 0 W/m2
06:36 -3.3 °C -6.3 °C 1027.3 hPa WSW 3.2 km/h 12.9 km/h 80% 0 mm 0 W/m2
06:42 -3.3 °C -6.3 °C 1027.3 hPa WSW 3.2 km/h 3.2 km/h 80% 0 mm 0 W/m2
06:48 -3.3 °C -6.2 °C 1027.3 hPa WSW 3.2 km/h 3.2 km/h 80% 0 mm 0 W/m2
06:54 -3.3 °C -6.2 °C 1027.3 hPa WSW 3.2 km/h 4.8 km/h 80% 0 mm 0 W/m2
07:00 -3.3 °C -6.2 °C 1027.7 hPa WSW 3.2 km/h 3.2 km/h 80% 0 mm 0 W/m2
07:06 -3.2 °C -6.2 °C 1027.3 hPa WSW 3.2 km/h 3.2 km/h 80% 0 mm 0 W/m2
07:12 -3.2 °C -6.1 °C 1027.3 hPa WSW 1.6 km/h 1.6 km/h 80% 0 mm 0 W/m2
07:18 -3.1 °C -6.1 °C 1027.7 hPa WNW 3.2 km/h 3.2 km/h 80% 0 mm 0 W/m2
07:24 -3.1 °C -6 °C 1027.7 hPa NW 1.6 km/h 3.2 km/h 80% 0 mm 0 W/m2
07:30 -3.1 °C -6 °C 1027.7 hPa Calm   1.6 km/h 80% 0 mm 0 W/m2
07:36 -3.1 °C -6 °C 1028 hPa NW 1.6 km/h 1.6 km/h 80% 0 mm 0 W/m2
07:42 -3 °C -5.8 °C 1028 hPa NW 1.6 km/h 3.2 km/h 81% 0 mm 0 W/m2
07:48 -2.9 °C -5.9 °C 1028 hPa NW 1.6 km/h 3.2 km/h 80% 0 mm 0 W/m2
07:54 -2.9 °C -5.8 °C 1028 hPa NW 1.6 km/h 1.6 km/h 80% 0 mm 5 W/m2
08:00 -2.8 °C -5.8 °C 1028 hPa NW 1.6 km/h 3.2 km/h 80% 0 mm 9 W/m2
08:06 -2.8 °C -5.8 °C 1028 hPa WSW 1.6 km/h 3.2 km/h 80% 0 mm 14 W/m2
08:12 -2.7 °C -5.7 °C 1028.3 hPa West 1.6 km/h 1.6 km/h 80% 0 mm 18 W/m2
08:18 -2.7 °C -5.7 °C 1028.3 hPa Calm   1.6 km/h 80% 0 mm 28 W/m2
08:24 -2.6 °C -5.6 °C 1028.7 hPa West 1.6 km/h 1.6 km/h 80% 0 mm 26 W/m2
08:30 -2.6 °C -5.6 °C 1028.7 hPa West 1.6 km/h 1.6 km/h 80% 0 mm 39 W/m2
08:36 -2.6 °C -5.6 °C 1028.7 hPa West 1.6 km/h 1.6 km/h 80% 0 mm 39 W/m2
08:42 -2.4 °C -5.4 °C 1028.7 hPa Calm   1.6 km/h 80% 0 mm 46 W/m2
08:48 -2.4 °C -5.6 °C 1028.7 hPa NW 1.6 km/h 3.2 km/h 79% 0 mm 58 W/m2
08:54 -2.2 °C -6 °C 1028.7 hPa NNW 3.2 km/h 8 km/h 75% 0 mm 49 W/m2
09:00 -2 °C -6.2 °C 1028.7 hPa NW 6.4 km/h 6.4 km/h 73% 0 mm 67 W/m2
09:06 -1.9 °C -6.6 °C 1028.7 hPa NW 8 km/h 8 km/h 70% 0 mm 86 W/m2
09:12 -1.8 °C -6.8 °C 1028.7 hPa WNW 8 km/h 8 km/h 69% 0 mm 84 W/m2
09:18 -1.8 °C -6.8 °C 1029 hPa WNW 8 km/h 22.5 km/h 69% 0 mm 88 W/m2
09:24 -1.8 °C -6.9 °C 1029 hPa NW 8 km/h 11.3 km/h 68% 0 mm 202 W/m2
09:30 -1.6 °C -6.7 °C 1029 hPa NNW 6.4 km/h 6.4 km/h 68% 0 mm 116 W/m2
09:36 -1.5 °C -6.4 °C 1029 hPa NW 3.2 km/h 6.4 km/h 69% 0 mm 116 W/m2
09:42 -1.4 °C -6.7 °C 1029 hPa WNW 3.2 km/h 14.5 km/h 67% 0 mm 121 W/m2
09:48 -1.4 °C -7 °C 1029 hPa West 6.4 km/h 14.5 km/h 66% 0 mm 246 W/m2
09:54 -1.3 °C -7.2 °C 1029 hPa NNW 8 km/h 12.9 km/h 64% 0 mm 160 W/m2
10:00 -1.4 °C -7.2 °C 1029 hPa North 8 km/h 8 km/h 65% 0 mm 160 W/m2
10:06 -1.5 °C -7.2 °C 1029 hPa NW 6.4 km/h 8 km/h 65% 0 mm 125 W/m2
10:12 -1.4 °C -7.1 °C 1029 hPa NW 4.8 km/h 4.8 km/h 65% 0 mm 137 W/m2
10:18 -0.9 °C -6.7 °C 1029 hPa NW 4.8 km/h 8 km/h 65% 0 mm 427 W/m2
10:24 -0.3 °C -7.4 °C 1029 hPa WNW 6.4 km/h 8 km/h 59% 0 mm 396 W/m2
10:32 -0.4 °C -7.7 °C 1029 hPa NW 6.4 km/h 8 km/h 58% 0 mm 403 W/m2
10:38 -0.3 °C -7.4 °C 1029 hPa West 6.4 km/h 8 km/h 59% 0 mm 424 W/m2
10:44 0.3 °C -6.8 °C 1029 hPa NW 4.8 km/h 8 km/h 59% 0 mm 476 W/m2
10:50 -0.1 °C -7.6 °C 1029 hPa NW 4.8 km/h 4.8 km/h 57% 0 mm 390 W/m2
10:56 0.1 °C -7.4 °C 1029 hPa WNW 6.4 km/h 9.7 km/h 57% 0 mm 527 W/m2
11:02 -0.3 °C -7.8 °C 1029 hPa WNW 6.4 km/h 6.4 km/h 57% 0 mm 483 W/m2
11:08 0.2 °C -7.6 °C 1028.7 hPa NNW 6.4 km/h 12.9 km/h 56% 0 mm 466 W/m2
11:14 0.1 °C -8.3 °C 1028.7 hPa WNW 6.4 km/h 6.4 km/h 53% 0 mm 496 W/m2
11:20 0.2 °C -8.1 °C 1028.7 hPa NW 6.4 km/h 6.4 km/h 54% 0 mm 487 W/m2
11:26 0 °C -8.2 °C 1028.7 hPa WNW 6.4 km/h 11.3 km/h 54% 0 mm 482 W/m2
11:32 0.1 °C -7.7 °C 1028.3 hPa West 6.4 km/h 6.4 km/h 56% 0 mm 473 W/m2
11:38 0.2 °C -7.3 °C 1028.3 hPa West 6.4 km/h 11.3 km/h 57% 0 mm 519 W/m2
11:44 0.6 °C -7.2 °C 1028.3 hPa NNW 4.8 km/h 6.4 km/h 56% 0 mm 575 W/m2
11:50 0.1 °C -7.9 °C 1028.3 hPa NW 6.4 km/h 6.4 km/h 55% 0 mm 512 W/m2
11:56 0.6 °C -7.7 °C 1028.3 hPa WNW 6.4 km/h 9.7 km/h 54% 0 mm 492 W/m2
12:02 0.4 °C -7.6 °C 1028 hPa NNW 6.4 km/h 6.4 km/h 55% 0 mm 494 W/m2
12:08 0.4 °C -7.3 °C 1028 hPa West 4.8 km/h 8 km/h 56% 0 mm 531 W/m2
12:14 0.1 °C -7.4 °C 1028 hPa WNW 6.4 km/h 12.9 km/h 57% 0 mm 513 W/m2
12:20 0.4 °C -7.3 °C 1027.7 hPa NW 6.4 km/h 6.4 km/h 56% 0 mm 478 W/m2
12:26 0.4 °C -7.8 °C 1027.7 hPa WNW 6.4 km/h 6.4 km/h 54% 0 mm 475 W/m2
12:32 -0.1 °C -8.3 °C 1027.7 hPa West 8 km/h 11.3 km/h 54% 0 mm 471 W/m2
12:38 0.1 °C -7.9 °C 1027.7 hPa WNW 6.4 km/h 11.3 km/h 55% 0 mm 469 W/m2
12:44 0.7 °C -7.3 °C 1027.7 hPa NW 4.8 km/h 6.4 km/h 55% 0 mm 469 W/m2
12:50 0.6 °C -7.7 °C 1027.7 hPa NW 4.8 km/h 4.8 km/h 54% 0 mm 469 W/m2
12:56 0.5 °C -8.2 °C 1027.7 hPa NW 4.8 km/h 12.9 km/h 52% 0 mm 466 W/m2
13:02 0 °C -8.9 °C 1027.7 hPa NW 8 km/h 9.7 km/h 51% 0 mm 452 W/m2
13:04 -0.1 °C -8.8 °C 1027.3 hPa WNW 8 km/h 9.7 km/h 52% 0 mm 452 W/m2
13:10 0.4 °C -9.1 °C 1027.3 hPa NW 6.4 km/h 8 km/h 49% 0 mm 450 W/m2
13:16 0.7 °C -8.3 °C 1027.7 hPa WNW 6.4 km/h 8 km/h 51% 0 mm 446 W/m2
13:22 0.3 °C -8.2 °C 1027.7 hPa NW 8 km/h 11.3 km/h 53% 0 mm 441 W/m2
13:28 0.4 °C -8.1 °C 1028 hPa WSW 8 km/h 11.3 km/h 53% 0 mm 443 W/m2
13:34 0.4 °C -7.8 °C 1028 hPa West 6.4 km/h 9.7 km/h 54% 0 mm 436 W/m2
13:40 0.2 °C -7.8 °C 1028 hPa WNW 6.4 km/h 6.4 km/h 55% 0 mm 95 W/m2
13:46 -0.3 °C -8.1 °C 1028 hPa NW 6.4 km/h 6.4 km/h 56% 0 mm 123 W/m2
13:52 -0.5 °C -7.8 °C 1028 hPa WNW 4.8 km/h 4.8 km/h 58% 0 mm 134 W/m2
13:58 -0.4 °C -7.4 °C 1028 hPa NW 8 km/h 12.9 km/h 59% 0 mm 120 W/m2
14:04 -0.3 °C -7.2 °C 1028 hPa NNW 6.4 km/h 8 km/h 60% 0 mm 135 W/m2
14:10 -0.5 °C -7.3 °C 1028 hPa WNW 4.8 km/h 4.8 km/h 60% 0 mm 114 W/m2
14:16 -0.6 °C -7.4 °C 1028 hPa WNW 4.8 km/h 4.8 km/h 60% 0 mm 88 W/m2
14:22 -0.7 °C -7.1 °C 1028 hPa WSW 4.8 km/h 9.7 km/h 62% 0 mm 116 W/m2
14:28 -0.8 °C -7.6 °C 1028 hPa WNW 6.4 km/h 9.7 km/h 60% 0 mm 121 W/m2
14:34 -0.8 °C -7.4 °C 1028 hPa West 4.8 km/h 9.7 km/h 61% 0 mm 132 W/m2
14:40 -0.8 °C -7.2 °C 1028 hPa West 4.8 km/h 4.8 km/h 62% 0 mm 104 W/m2
14:46 -0.7 °C -7.1 °C 1028 hPa West 3.2 km/h 4.8 km/h 62% 0 mm 77 W/m2
14:52 -0.8 °C -6.9 °C 1028 hPa WNW 3.2 km/h 3.2 km/h 63% 0 mm 69 W/m2
14:58 -0.8 °C -7.2 °C 1028 hPa West 3.2 km/h 6.4 km/h 62% 0 mm 69 W/m2
15:04 -0.9 °C -7.3 °C 1028 hPa WNW 4.8 km/h 4.8 km/h 62% 0 mm 74 W/m2
15:10 -0.9 °C -7.3 °C 1028 hPa WNW 4.8 km/h 4.8 km/h 62% 0 mm 81 W/m2
15:16 -0.9 °C -7.1 °C 1028 hPa WNW 3.2 km/h 4.8 km/h 63% 0 mm 70 W/m2
15:22 -1 °C -7.2 °C 1028 hPa West 4.8 km/h 4.8 km/h 63% 0 mm 74 W/m2
15:28 -1.1 °C -7.2 °C 1028 hPa WNW 4.8 km/h 8 km/h 63% 0 mm 58 W/m2
15:34 -1.1 °C -7.2 °C 1028.3 hPa WSW 3.2 km/h 4.8 km/h 63% 0 mm 63 W/m2
15:40 -1.1 °C -7 °C 1028.3 hPa WNW 3.2 km/h 4.8 km/h 64% 0 mm 54 W/m2
15:46 -1.1 °C -7.1 °C 1028.3 hPa WNW 4.8 km/h 4.8 km/h 64% 0 mm 67 W/m2
15:52 -1.1 °C -7.1 °C 1028.3 hPa NW 3.2 km/h 3.2 km/h 64% 0 mm 67 W/m2
15:58 -1.2 °C -7.1 °C 1028.3 hPa NW 1.6 km/h 3.2 km/h 64% 0 mm 56 W/m2
16:04 -1.2 °C -7.3 °C 1028.3 hPa NW 1.6 km/h 4.8 km/h 63% 0 mm 46 W/m2
16:10 -1.2 °C -7.1 °C 1028.3 hPa West 3.2 km/h 3.2 km/h 64% 0 mm 83 W/m2
16:16 -1.2 °C -7.4 °C 1028.3 hPa West 3.2 km/h 6.4 km/h 63% 0 mm 26 W/m2
16:22 -1.3 °C -7.3 °C 1028.3 hPa WSW 3.2 km/h 3.2 km/h 64% 0 mm 18 W/m2
16:28 -1.4 °C -7.2 °C 1028.3 hPa WSW 1.6 km/h 3.2 km/h 65% 0 mm 16 W/m2
16:40 -1.7 °C -7.2 °C 1028 hPa Calm   1.6 km/h 66% 0 mm 11 W/m2
16:46 -1.7 °C -7.2 °C 1028 hPa WSW 1.6 km/h 3.2 km/h 66% 0 mm 7 W/m2
16:52 -1.8 °C -7.2 °C 1028.3 hPa Calm     67% 0 mm 5 W/m2
16:58 -1.9 °C -7.3 °C 1028.3 hPa Calm   1.6 km/h 67% 0 mm 0 W/m2
17:04 -2.1 °C -7.4 °C 1028.3 hPa Calm     67% 0 mm 0 W/m2
17:10 -2.2 °C -7.3 °C 1028.3 hPa Calm     68% 0 mm 0 W/m2
17:16 -2.3 °C -7.3 °C 1028.3 hPa Calm     69% 0 mm 0 W/m2
17:22 -2.5 °C -7.4 °C 1028.3 hPa Calm     69% 0 mm 0 W/m2
17:28 -2.6 °C -6.9 °C 1028.3 hPa Calm     72% 0 mm 0 W/m2
17:34 -2.7 °C -7 °C 1028.3 hPa Calm     72% 0 mm 0 W/m2
17:40 -2.7 °C -7.1 °C 1028.3 hPa Calm     72% 0 mm 0 W/m2
17:48 -2.7 °C -6.9 °C 1028.3 hPa Calm     73% 0 mm 0 W/m2
17:54 -2.7 °C -6.7 °C 1028.7 hPa Calm     74% 0 mm 0 W/m2
18:00 -2.7 °C -6.6 °C 1029 hPa Calm     75% 0 mm 0 W/m2
18:06 -2.8 °C -6.8 °C 1029 hPa Calm     74% 0 mm 0 W/m2
18:12 -2.8 °C -6.6 °C 1029 hPa Calm     75% 0 mm 0 W/m2
18:18 -2.7 °C -6.6 °C 1029 hPa Calm     75% 0 mm 0 W/m2
18:24 -2.7 °C -6.5 °C 1029 hPa Calm     75% 0 mm 0 W/m2
18:30 -2.6 °C -6.4 °C 1029 hPa Calm     75% 0 mm 0 W/m2
18:36 -2.6 °C -6.4 °C 1029 hPa Calm     75% 0 mm 0 W/m2
18:42 -2.6 °C -6.4 °C 1029 hPa Calm     75% 0 mm 0 W/m2
18:48 -2.6 °C -6.6 °C 1029 hPa Calm     74% 0 mm 0 W/m2
18:54 -2.4 °C -6.4 °C 1029 hPa Calm     74% 0 mm 0 W/m2
19:00 -2.3 °C -6.3 °C 1029 hPa Calm     74% 0 mm 0 W/m2
19:06 -2.2 °C -6.2 °C 1029 hPa Calm     74% 0 mm 0 W/m2
19:12 -2.2 °C -6.2 °C 1029 hPa Calm     74% 0 mm 0 W/m2
19:18 -2.2 °C -6.2 °C 1029 hPa Calm     74% 0 mm 0 W/m2
19:24 -2.2 °C -6.2 °C 1029 hPa Calm     74% 0 mm 0 W/m2
19:30 -2.1 °C -6.1 °C 1029.3 hPa Calm     74% 0 mm 0 W/m2
19:36 -2.1 °C -6.1 °C 1029.3 hPa Calm     74% 0 mm 0 W/m2
19:42 -2.1 °C -5.9 °C 1029.3 hPa Calm     75% 0 mm 0 W/m2
19:48 -2.1 °C -5.9 °C 1029 hPa Calm     75% 0 mm 0 W/m2
19:54 -2.1 °C -5.9 °C 1029 hPa Calm     75% 0 mm 0 W/m2
20:00 -2.1 °C -6.1 °C 1029 hPa Calm     74% 0 mm 0 W/m2
20:06 -2.1 °C -6.1 °C 1029 hPa Calm     74% 0 mm 0 W/m2
20:12 -2.1 °C -6.1 °C 1029 hPa Calm   1.6 km/h 74% 0 mm 0 W/m2
20:18 -2 °C -6.2 °C 1029 hPa Calm   3.2 km/h 73% 0 mm 0 W/m2
20:24 -1.9 °C -6.6 °C 1029 hPa West 1.6 km/h 1.6 km/h 70% 0 mm 0 W/m2
20:30 -1.8 °C -6.6 °C 1029 hPa Calm     70% 0 mm 0 W/m2
20:36 -1.7 °C -6.7 °C 1029 hPa Calm     69% 0 mm 0 W/m2
20:42 -1.7 °C -6.4 °C 1028.7 hPa Calm     70% 0 mm 0 W/m2
20:48 -1.7 °C -6.3 °C 1028.7 hPa Calm     71% 0 mm 0 W/m2
20:54 -1.7 °C -6.3 °C 1029 hPa Calm     71% 0 mm 0 W/m2
21:00 -1.8 °C -6.2 °C 1028.7 hPa Calm     72% 0 mm 0 W/m2
21:06 -1.9 °C -6.3 °C 1028.7 hPa Calm     72% 0 mm 0 W/m2
21:12 -2 °C -6.6 °C 1029 hPa West 1.6 km/h 1.6 km/h 71% 0 mm 0 W/m2
21:18 -2 °C -6.7 °C 1028.7 hPa West 1.6 km/h 3.2 km/h 70% 0 mm 0 W/m2
21:24 -1.9 °C -6.9 °C 1029 hPa Calm   1.6 km/h 69% 0 mm 0 W/m2
21:30 -1.8 °C -6.9 °C 1029 hPa West 1.6 km/h 1.6 km/h 68% 0 mm 0 W/m2
21:36 -1.8 °C -7.1 °C 1029 hPa West 1.6 km/h 3.2 km/h 67% 0 mm 0 W/m2
21:42 -1.7 °C -6.8 °C 1029 hPa West 1.6 km/h 3.2 km/h 68% 0 mm 0 W/m2
21:48 -1.7 °C -6.6 °C 1029 hPa WSW 1.6 km/h 4.8 km/h 69% 0 mm 0 W/m2
21:54 -1.6 °C -6.8 °C 1029 hPa WSW 1.6 km/h 1.6 km/h 68% 0 mm 0 W/m2
22:00 -1.6 °C -6.9 °C 1029 hPa West 1.6 km/h 1.6 km/h 67% 0 mm 0 W/m2
22:06 -1.5 °C -6.8 °C 1029 hPa West 1.6 km/h 1.6 km/h 67% 0 mm 0 W/m2
22:12 -1.5 °C -6.7 °C 1029 hPa Calm   1.6 km/h 68% 0 mm 0 W/m2
22:18 -1.5 °C -6.8 °C 1029 hPa West 1.6 km/h 3.2 km/h 67% 0 mm 0 W/m2
22:24 -1.4 °C -6.8 °C 1029 hPa Calm   1.6 km/h 67% 0 mm 0 W/m2
22:30 -1.4 °C -6.6 °C 1029 hPa Calm     68% 0 mm 0 W/m2
22:36 -1.5 °C -6.7 °C 1029 hPa West 1.6 km/h 3.2 km/h 68% 0 mm 0 W/m2
22:42 -1.5 °C -7.1 °C 1029 hPa West 1.6 km/h 1.6 km/h 66% 0 mm 0 W/m2
22:48 -1.4 °C -6.9 °C 1029 hPa SW 3.2 km/h 4.8 km/h 66% 0 mm 0 W/m2
22:54 -1.4 °C -6.9 °C 1029 hPa SW 3.2 km/h 6.4 km/h 66% 0 mm 0 W/m2
23:00 -1.4 °C -6.7 °C 1029 hPa SW 1.6 km/h 3.2 km/h 67% 0 mm 0 W/m2
23:06 -1.4 °C -6.6 °C 1029 hPa SW 1.6 km/h 3.2 km/h 68% 0 mm 0 W/m2
23:12 -1.6 °C -6.7 °C 1029 hPa SW 1.6 km/h 1.6 km/h 68% 0 mm 0 W/m2
23:18 -1.7 °C -6.8 °C 1028.7 hPa SW 1.6 km/h 3.2 km/h 68% 0 mm 0 W/m2
23:24 -1.8 °C -6.9 °C 1028.7 hPa Calm   1.6 km/h 68% 0 mm 0 W/m2
23:30 -2.1 °C -7.2 °C 1028.7 hPa Calm     68% 0 mm 0 W/m2
23:36 -2.2 °C -7.3 °C 1028.7 hPa Calm   1.6 km/h 68% 0 mm 0 W/m2
23:42 -2.3 °C -7.3 °C 1028.7 hPa Calm     69% 0 mm 0 W/m2
23:48 -2.6 °C -7.4 °C 1028.3 hPa Calm   3.2 km/h 69% 0 mm 0 W/m2
23:54 -2.6 °C -7.5 °C 1028.7 hPa Calm     69% 0 mm 0 W/m2
Country Meadow, Clay, NY, USA
Compliments of Weather Underground - 2 mb